createdAt,value
2023-05-22T00:01:14.870Z,19.15
2023-05-22T00:03:42.951Z,19.26
2023-05-22T00:06:12.055Z,19.38
2023-05-22T00:08:40.273Z,19.47
2023-05-22T00:11:08.680Z,19.58
2023-05-22T00:13:36.775Z,19.53
2023-05-22T00:16:07.296Z,19.61
2023-05-22T00:18:35.334Z,19.51
2023-05-22T00:21:03.866Z,19.52
2023-05-22T00:23:31.925Z,19.52
2023-05-22T00:26:00.324Z,19.66
2023-05-22T00:28:29.253Z,19.59
2023-05-22T00:30:57.573Z,19.54
2023-05-22T00:33:27.065Z,19.48
2023-05-22T00:35:55.365Z,19.40
2023-05-22T00:38:33.888Z,19.41
2023-05-22T00:41:02.754Z,19.43
2023-05-22T00:43:31.329Z,19.67
2023-05-22T00:45:59.710Z,19.86
2023-05-22T00:48:29.438Z,19.56
2023-05-22T00:50:58.873Z,19.42
2023-05-22T00:53:29.661Z,19.32
2023-05-22T00:55:58.579Z,19.29
2023-05-22T00:58:28.108Z,19.33
2023-05-22T01:00:57.067Z,19.24
2023-05-22T01:03:27.411Z,19.14
2023-05-22T01:05:57.466Z,19.18
2023-05-22T01:08:25.993Z,19.28
2023-05-22T01:10:59.985Z,19.25
2023-05-22T01:13:31.256Z,19.24
2023-05-22T01:16:07.428Z,19.21
2023-05-22T01:18:42.193Z,19.09
2023-05-22T01:21:16.183Z,18.99
2023-05-22T01:24:18.230Z,18.97
2023-05-22T01:27:09.539Z,19.14
2023-05-22T01:29:46.166Z,18.96
2023-05-22T01:32:18.569Z,18.84
2023-05-22T01:34:47.857Z,18.86
2023-05-22T01:37:18.256Z,18.81
2023-05-22T01:39:46.700Z,18.74
2023-05-22T01:42:16.229Z,18.67
2023-05-22T01:44:44.495Z,18.67
2023-05-22T01:47:12.871Z,18.70
2023-05-22T01:49:42.750Z,18.46
2023-05-22T01:52:14.634Z,18.41
2023-05-22T01:54:46.728Z,18.40
2023-05-22T01:57:20.070Z,18.43
2023-05-22T01:59:50.799Z,18.58
2023-05-22T02:02:20.557Z,18.53
2023-05-22T02:05:01.832Z,18.58
2023-05-22T02:07:31.341Z,18.51
2023-05-22T02:10:00.016Z,18.27
2023-05-22T02:12:28.541Z,18.39
2023-05-22T02:14:56.611Z,18.40
2023-05-22T02:17:26.044Z,18.39
2023-05-22T02:19:55.502Z,18.28
2023-05-22T02:22:23.870Z,18.13
2023-05-22T02:24:51.988Z,17.94
2023-05-22T02:27:20.324Z,17.94
2023-05-22T02:29:48.387Z,17.97
2023-05-22T02:32:16.701Z,17.98
2023-05-22T02:34:45.034Z,17.99
2023-05-22T02:37:15.787Z,18.01
2023-05-22T02:39:43.845Z,18.06
2023-05-22T02:42:12.197Z,18.07
2023-05-22T02:44:40.260Z,18.07
2023-05-22T02:47:08.657Z,18.06
2023-05-22T02:49:36.772Z,18.02
2023-05-22T02:52:05.610Z,18.07
2023-05-22T02:54:35.112Z,18.07
2023-05-22T02:57:04.138Z,18.06
2023-05-22T02:59:32.790Z,18.00
2023-05-22T03:02:01.370Z,18.01
2023-05-22T03:04:30.295Z,18.04
2023-05-22T03:06:59.071Z,18.08
2023-05-22T03:09:27.208Z,18.05
2023-05-22T03:11:57.147Z,18.25
2023-05-22T03:14:25.222Z,18.18
2023-05-22T03:16:54.684Z,18.19
2023-05-22T03:19:24.016Z,18.05
2023-05-22T03:21:52.503Z,17.98
2023-05-22T03:24:20.891Z,18.01
2023-05-22T03:26:49.330Z,18.00
2023-05-22T03:29:26.269Z,17.93
2023-05-22T03:31:55.324Z,17.87
2023-05-22T03:34:23.560Z,17.90
2023-05-22T03:36:51.885Z,17.93
2023-05-22T03:39:19.943Z,17.76
2023-05-22T03:41:57.839Z,17.80
2023-05-22T03:44:28.266Z,17.67
2023-05-22T03:46:56.775Z,17.35
2023-05-22T03:49:24.915Z,17.34
2023-05-22T03:51:53.256Z,17.26
2023-05-22T03:54:21.299Z,17.13
2023-05-22T03:56:50.598Z,17.15
2023-05-22T03:59:20.777Z,17.18
2023-05-22T04:01:50.801Z,17.10
2023-05-22T04:04:19.238Z,17.30
2023-05-22T04:06:47.559Z,17.03
2023-05-22T04:09:16.167Z,16.85
2023-05-22T04:11:44.564Z,16.99
2023-05-22T04:14:12.980Z,16.98
2023-05-22T04:16:41.274Z,16.66
2023-05-22T04:19:10.715Z,16.71
2023-05-22T04:21:39.354Z,16.88
2023-05-22T04:24:08.066Z,17.07
2023-05-22T04:26:37.200Z,17.15
2023-05-22T04:29:10.243Z,17.23
2023-05-22T04:31:38.638Z,17.28
2023-05-22T04:34:07.320Z,17.36
2023-05-22T04:36:38.823Z,17.43
2023-05-22T04:39:06.900Z,17.50
2023-05-22T04:41:35.233Z,17.61
2023-05-22T04:44:04.063Z,17.65
2023-05-22T04:46:34.329Z,17.73
2023-05-22T04:49:03.257Z,17.81
2023-05-22T04:51:32.894Z,17.94
2023-05-22T04:54:02.413Z,18.03
2023-05-22T04:56:36.749Z,18.00
2023-05-22T04:59:08.967Z,18.02
2023-05-22T05:01:38.451Z,18.04
2023-05-22T05:04:06.802Z,17.99
2023-05-22T05:06:35.816Z,17.80
2023-05-22T05:09:05.846Z,17.73
2023-05-22T05:11:34.218Z,17.64
2023-05-22T05:14:02.341Z,17.66
2023-05-22T05:16:30.737Z,17.77
2023-05-22T05:18:58.998Z,17.76
2023-05-22T05:21:28.002Z,17.78
2023-05-22T05:23:59.052Z,17.67
2023-05-22T05:26:29.381Z,17.65
2023-05-22T05:28:57.544Z,17.71
2023-05-22T05:31:32.905Z,17.58
2023-05-22T05:34:27.505Z,17.81
2023-05-22T05:37:03.105Z,17.79
2023-05-22T05:39:32.085Z,17.89
2023-05-22T05:42:03.672Z,17.93
2023-05-22T05:44:31.729Z,18.07
2023-05-22T05:47:01.160Z,18.22
2023-05-22T05:49:29.606Z,18.36
2023-05-22T05:51:58.574Z,18.51
2023-05-22T05:54:27.583Z,18.70
2023-05-22T05:57:00.082Z,18.73
2023-05-22T05:59:31.818Z,18.74
2023-05-22T06:02:20.278Z,18.41
2023-05-22T06:04:49.522Z,18.40
2023-05-22T06:07:19.848Z,18.30
2023-05-22T06:09:51.607Z,18.38
2023-05-22T06:12:43.116Z,18.46
2023-05-22T06:15:13.120Z,18.44
2023-05-22T06:17:41.829Z,18.38
2023-05-22T06:20:10.660Z,18.38
2023-05-22T06:22:38.948Z,18.41
2023-05-22T06:25:08.033Z,18.26
2023-05-22T06:27:36.345Z,18.58
2023-05-22T06:30:05.066Z,18.75
2023-05-22T06:32:40.162Z,18.83
2023-05-22T06:35:10.294Z,18.99
2023-05-22T06:37:38.969Z,19.20
2023-05-22T06:40:10.016Z,19.07
2023-05-22T06:42:46.711Z,19.35
2023-05-22T06:45:30.078Z,19.23
2023-05-22T06:48:18.355Z,19.42
2023-05-22T06:51:02.865Z,19.39
2023-05-22T06:53:31.387Z,19.47
2023-05-22T06:55:59.538Z,19.42
2023-05-22T06:58:43.971Z,19.48
2023-05-22T07:01:12.276Z,19.63
2023-05-22T07:03:49.777Z,19.69
2023-05-22T07:06:33.483Z,19.60
2023-05-22T07:09:03.079Z,19.45
2023-05-22T07:11:31.501Z,19.55
2023-05-22T07:14:00.127Z,19.40
2023-05-22T07:16:29.790Z,19.51
2023-05-22T07:18:59.558Z,19.69
2023-05-22T07:21:30.212Z,19.58
2023-05-22T07:23:59.149Z,19.53
2023-05-22T07:26:27.631Z,19.51
2023-05-22T07:29:04.493Z,19.47
2023-05-22T07:31:34.218Z,19.63
2023-05-22T07:34:04.926Z,19.88
2023-05-22T07:36:34.684Z,19.88
2023-05-22T07:39:05.021Z,20.01
2023-05-22T07:41:36.762Z,20.11
2023-05-22T07:44:05.403Z,20.21
2023-05-22T07:46:38.138Z,20.44
2023-05-22T07:49:20.192Z,20.47
2023-05-22T07:51:49.088Z,20.58
2023-05-22T07:54:18.412Z,20.83
2023-05-22T07:56:50.098Z,20.98
2023-05-22T07:59:21.513Z,20.90
2023-05-22T08:01:49.675Z,20.85
2023-05-22T08:04:19.465Z,20.92
2023-05-22T08:06:47.672Z,20.98
2023-05-22T08:09:16.061Z,21.13
2023-05-22T08:11:44.121Z,21.42
2023-05-22T08:14:12.934Z,21.67
2023-05-22T08:16:41.067Z,21.42
2023-05-22T08:19:09.899Z,21.54
2023-05-22T08:21:40.224Z,21.65
2023-05-22T08:24:08.919Z,21.48
2023-05-22T08:26:38.755Z,21.27
2023-05-22T08:29:07.060Z,21.38
2023-05-22T08:31:35.761Z,21.37
2023-05-22T08:34:04.858Z,21.52
2023-05-22T08:36:33.889Z,21.55
2023-05-22T08:39:03.841Z,21.48
2023-05-22T08:41:32.025Z,21.64
2023-05-22T08:44:00.361Z,21.75
2023-05-22T08:46:29.413Z,21.88
2023-05-22T08:48:58.896Z,22.03
2023-05-22T08:51:29.314Z,22.23
2023-05-22T08:53:57.982Z,22.29
2023-05-22T08:56:29.488Z,22.37
2023-05-22T08:58:58.605Z,22.64
2023-05-22T09:01:27.250Z,22.74
2023-05-22T09:03:56.516Z,22.58
2023-05-22T09:06:24.659Z,22.63
2023-05-22T09:08:53.353Z,22.87
2023-05-22T09:11:21.575Z,23.02
2023-05-22T09:13:52.142Z,23.05
2023-05-22T09:16:20.760Z,23.25
2023-05-22T09:18:49.125Z,23.43
2023-05-22T09:21:28.981Z,23.44
2023-05-22T09:24:01.020Z,23.66
2023-05-22T09:26:29.691Z,23.71
2023-05-22T09:29:00.760Z,23.94
2023-05-22T09:31:30.162Z,23.98
2023-05-22T09:33:59.187Z,24.00
2023-05-22T09:36:33.074Z,24.15
2023-05-22T09:39:02.331Z,24.25
2023-05-22T09:41:31.305Z,24.43
2023-05-22T09:44:02.126Z,24.62
2023-05-22T09:46:30.570Z,24.75
2023-05-22T09:48:59.112Z,24.40
2023-05-22T09:51:27.418Z,24.67
2023-05-22T09:54:06.249Z,24.66
2023-05-22T09:56:39.556Z,25.01
2023-05-22T09:59:10.514Z,24.74
2023-05-22T10:01:39.814Z,25.08
2023-05-22T10:04:13.377Z,25.20
2023-05-22T10:06:41.962Z,25.33
2023-05-22T10:09:12.432Z,25.42
2023-05-22T10:11:41.006Z,25.56
2023-05-22T10:14:10.710Z,25.51
2023-05-22T10:16:38.811Z,25.43
2023-05-22T10:19:08.309Z,25.56
2023-05-22T10:21:37.746Z,25.69
2023-05-22T10:24:07.478Z,25.78
2023-05-22T10:26:35.757Z,25.83
2023-05-22T10:29:08.641Z,25.34
2023-05-22T10:31:45.434Z,25.35
2023-05-22T10:34:31.403Z,25.60
2023-05-22T10:37:17.085Z,25.39
2023-05-22T10:39:55.668Z,25.16
2023-05-22T10:42:23.782Z,25.30
2023-05-22T10:44:54.165Z,25.35
2023-05-22T10:47:23.574Z,25.48
2023-05-22T10:50:04.144Z,25.57
2023-05-22T10:52:32.327Z,25.66
2023-05-22T10:55:02.040Z,25.72
2023-05-22T10:57:34.616Z,25.66
2023-05-22T11:00:10.919Z,25.47
2023-05-22T11:02:46.897Z,25.35
2023-05-22T11:05:39.656Z,25.70
2023-05-22T11:08:38.598Z,25.82
2023-05-22T11:11:14.381Z,25.89
2023-05-22T11:13:43.623Z,25.80
2023-05-22T11:16:12.241Z,26.03
2023-05-22T11:18:41.752Z,26.10
2023-05-22T11:21:13.850Z,26.06
2023-05-22T11:23:42.022Z,26.25
2023-05-22T11:26:27.082Z,26.32
2023-05-22T11:28:56.578Z,26.50
2023-05-22T11:31:26.403Z,26.65
2023-05-22T11:33:56.122Z,26.71
2023-05-22T11:36:25.726Z,26.79
2023-05-22T11:38:58.587Z,26.81
2023-05-22T11:41:33.408Z,27.00
2023-05-22T11:44:02.534Z,27.08
2023-05-22T11:46:31.068Z,27.18
2023-05-22T11:49:00.776Z,27.25
2023-05-22T11:51:29.246Z,27.38
2023-05-22T11:53:58.302Z,27.54
2023-05-22T11:56:26.986Z,27.54
2023-05-22T11:58:55.298Z,27.49
2023-05-22T12:01:23.641Z,27.30
2023-05-22T12:03:51.770Z,27.46
2023-05-22T12:06:21.539Z,27.60
2023-05-22T12:08:49.711Z,27.62
2023-05-22T12:11:18.090Z,27.66
2023-05-22T12:13:46.185Z,27.70
2023-05-22T12:16:22.720Z,27.78
2023-05-22T12:18:53.622Z,27.98
2023-05-22T12:21:23.534Z,28.08
2023-05-22T12:23:52.519Z,27.69
2023-05-22T12:26:21.372Z,28.02
2023-05-22T12:28:49.512Z,28.15
2023-05-22T12:31:21.560Z,28.29
2023-05-22T12:33:49.914Z,28.36
2023-05-22T12:36:18.225Z,28.43
2023-05-22T12:38:47.790Z,28.41
2023-05-22T12:41:16.259Z,28.53
2023-05-22T12:43:44.386Z,28.64
2023-05-22T12:46:12.706Z,28.62
2023-05-22T12:48:40.802Z,28.62
2023-05-22T12:51:10.225Z,28.72
2023-05-22T12:53:38.627Z,28.82
2023-05-22T12:56:08.322Z,28.78
2023-05-22T12:58:36.501Z,28.91
2023-05-22T13:01:04.960Z,29.08
2023-05-22T13:03:33.238Z,29.36
2023-05-22T13:06:01.566Z,29.60
2023-05-22T13:08:29.680Z,29.78
2023-05-22T13:10:58.178Z,30.01
2023-05-22T13:13:27.985Z,30.23
2023-05-22T13:15:56.337Z,30.44
2023-05-22T13:18:24.369Z,30.64
2023-05-22T13:20:52.720Z,30.79
2023-05-22T13:23:20.835Z,30.77
2023-05-22T13:25:49.189Z,30.66
2023-05-22T13:28:17.291Z,30.73
2023-05-22T13:30:47.180Z,30.84
2023-05-22T13:33:15.281Z,31.06
2023-05-22T13:35:43.571Z,31.30
2023-05-22T13:38:11.665Z,31.33
2023-05-22T13:40:42.744Z,31.53
2023-05-22T13:43:11.162Z,31.21
2023-05-22T13:45:39.637Z,31.90
2023-05-22T13:48:09.246Z,32.23
2023-05-22T13:50:37.619Z,32.54
2023-05-22T13:53:05.657Z,32.79
2023-05-22T13:55:33.975Z,32.88
2023-05-22T13:58:02.023Z,32.97
2023-05-22T14:00:30.638Z,33.12
2023-05-22T14:02:58.956Z,33.29
2023-05-22T14:05:28.637Z,33.31
2023-05-22T14:07:56.777Z,33.82
2023-05-22T14:10:25.155Z,34.25
2023-05-22T14:12:54.476Z,33.99
2023-05-22T14:15:24.185Z,34.54
2023-05-22T14:17:52.363Z,34.86
2023-05-22T14:20:21.058Z,34.70
2023-05-22T14:22:57.793Z,34.53
2023-05-22T14:25:26.961Z,35.58
2023-05-22T14:27:55.087Z,35.18
2023-05-22T14:30:23.647Z,35.62
2023-05-22T14:32:52.137Z,35.75
2023-05-22T14:35:20.887Z,35.96
2023-05-22T14:37:50.586Z,35.85
2023-05-22T14:40:19.164Z,35.29
2023-05-22T14:42:47.513Z,34.78
2023-05-22T14:45:15.939Z,34.22
2023-05-22T14:47:43.971Z,33.47
2023-05-22T14:50:19.048Z,33.08
2023-05-22T14:52:50.066Z,32.61
2023-05-22T14:55:18.507Z,32.36
2023-05-22T14:57:46.715Z,31.94
2023-05-22T15:00:16.340Z,31.95
2023-05-22T15:02:44.431Z,31.18
2023-05-22T15:05:13.010Z,30.47
2023-05-22T15:07:44.712Z,29.08
2023-05-22T15:10:15.974Z,28.51
2023-05-22T15:12:43.974Z,28.31
2023-05-22T15:15:12.783Z,28.22
2023-05-22T15:17:42.934Z,28.10
2023-05-22T15:20:12.625Z,27.86
2023-05-22T15:22:40.761Z,27.79
2023-05-22T15:25:11.550Z,27.89
2023-05-22T15:27:41.258Z,27.98
2023-05-22T15:30:10.786Z,27.99
2023-05-22T15:32:39.403Z,27.57
2023-05-22T15:35:09.064Z,27.42
2023-05-22T15:37:37.153Z,27.47
2023-05-22T15:40:06.937Z,27.24
2023-05-22T15:42:35.077Z,27.44
2023-05-22T15:45:05.630Z,27.48
2023-05-22T15:47:34.213Z,27.60
2023-05-22T15:50:02.556Z,27.29
2023-05-22T15:52:30.732Z,27.13
2023-05-22T15:54:59.274Z,27.37
2023-05-22T15:57:27.717Z,27.35
2023-05-22T15:59:56.162Z,27.15
2023-05-22T16:02:25.619Z,27.25
2023-05-22T16:04:53.972Z,27.23
2023-05-22T16:07:22.137Z,27.22
2023-05-22T16:09:50.996Z,27.30
2023-05-22T16:12:19.433Z,27.23
2023-05-22T16:14:47.772Z,27.17
2023-05-22T16:17:15.989Z,27.14
2023-05-22T16:19:45.713Z,26.97
2023-05-22T16:22:13.828Z,26.94
2023-05-22T16:24:42.150Z,26.94
2023-05-22T16:27:10.282Z,26.81
2023-05-22T16:29:38.579Z,26.63
2023-05-22T16:32:06.902Z,26.50
2023-05-22T16:34:36.393Z,26.41
2023-05-22T16:37:06.060Z,26.28
2023-05-22T16:39:34.450Z,26.17
2023-05-22T16:42:02.480Z,25.97
2023-05-22T16:44:30.829Z,25.96
2023-05-22T16:46:58.951Z,25.96
2023-05-22T16:49:33.122Z,25.79
2023-05-22T16:52:01.172Z,25.47
2023-05-22T16:54:30.782Z,25.47
2023-05-22T16:56:58.868Z,25.34
2023-05-22T16:59:27.167Z,25.27
2023-05-22T17:01:55.180Z,25.34
2023-05-22T17:04:23.456Z,25.33
2023-05-22T17:06:53.688Z,25.32
2023-05-22T17:09:22.165Z,25.37
2023-05-22T17:11:51.535Z,25.35
2023-05-22T17:14:21.628Z,25.36
2023-05-22T17:16:49.841Z,25.34
2023-05-22T17:19:18.419Z,25.38
2023-05-22T17:21:46.689Z,25.24
2023-05-22T17:24:15.147Z,25.17
2023-05-22T17:26:43.361Z,25.00
2023-05-22T17:29:12.986Z,25.02
2023-05-22T17:31:41.091Z,25.09
2023-05-22T17:34:09.575Z,25.13
2023-05-22T17:36:37.889Z,25.08
2023-05-22T17:39:06.611Z,25.06
2023-05-22T17:41:34.882Z,25.09
2023-05-22T17:44:03.205Z,25.19
2023-05-22T17:46:32.828Z,25.15
2023-05-22T17:49:01.139Z,24.94
2023-05-22T17:51:29.394Z,25.01
2023-05-22T17:53:58.953Z,24.71
2023-05-22T17:56:27.715Z,24.57
2023-05-22T17:58:56.080Z,24.43
2023-05-22T18:01:24.415Z,24.44
2023-05-22T18:03:54.439Z,24.56
2023-05-22T18:06:24.269Z,24.55
2023-05-22T18:08:53.119Z,24.53
2023-05-22T18:11:21.245Z,24.28
2023-05-22T18:13:49.634Z,24.20
2023-05-22T18:16:18.812Z,24.33
2023-05-22T18:18:47.117Z,24.20
2023-05-22T18:21:16.546Z,24.08
2023-05-22T18:23:44.889Z,24.13
2023-05-22T18:26:13.001Z,24.05
2023-05-22T18:28:42.352Z,23.95
2023-05-22T18:31:10.513Z,23.81
2023-05-22T18:33:39.716Z,23.71
2023-05-22T18:36:07.870Z,23.60
2023-05-22T18:38:37.593Z,23.35
2023-05-22T18:41:06.714Z,23.37
2023-05-22T18:43:35.081Z,23.43
2023-05-22T18:46:03.275Z,23.28
2023-05-22T18:48:33.070Z,23.36
2023-05-22T18:51:01.355Z,23.40
2023-05-22T18:53:29.996Z,23.28
2023-05-22T18:55:59.359Z,23.24
2023-05-22T18:58:27.693Z,23.17
2023-05-22T19:00:56.293Z,23.15
2023-05-22T19:03:24.703Z,23.14
2023-05-22T19:05:53.208Z,23.12
2023-05-22T19:08:21.562Z,22.95
2023-05-22T19:10:49.632Z,22.91
2023-05-22T19:13:19.440Z,22.82
2023-05-22T19:15:47.519Z,22.75
2023-05-22T19:18:15.951Z,22.73
2023-05-22T19:20:44.161Z,22.67
2023-05-22T19:23:13.772Z,22.63
2023-05-22T19:25:41.920Z,22.53
2023-05-22T19:28:10.385Z,22.42
2023-05-22T19:30:40.214Z,22.35
2023-05-22T19:33:09.042Z,22.27
2023-05-22T19:35:37.813Z,22.31
2023-05-22T19:38:06.271Z,22.41
2023-05-22T19:40:34.325Z,22.36
2023-05-22T19:43:02.918Z,22.34
2023-05-22T19:45:31.108Z,22.22
2023-05-22T19:48:00.874Z,22.12
2023-05-22T19:50:28.918Z,22.00
2023-05-22T19:52:57.348Z,21.88
2023-05-22T19:55:25.621Z,21.84
2023-05-22T19:57:53.924Z,21.83
2023-05-22T20:00:22.656Z,21.83
2023-05-22T20:02:51.268Z,21.88
2023-05-22T20:05:20.916Z,21.95
2023-05-22T20:07:49.337Z,22.11
2023-05-22T20:10:17.580Z,22.18
2023-05-22T20:12:48.543Z,22.10
2023-05-22T20:15:17.726Z,22.01
2023-05-22T20:17:47.530Z,21.98
2023-05-22T20:20:15.889Z,21.88
2023-05-22T20:22:45.718Z,21.81
2023-05-22T20:25:13.855Z,21.89
2023-05-22T20:27:42.230Z,21.79
2023-05-22T20:30:12.516Z,21.71
2023-05-22T20:32:42.484Z,21.66
2023-05-22T20:35:13.721Z,21.66
2023-05-22T20:37:42.092Z,21.68
2023-05-22T20:40:12.963Z,21.54
2023-05-22T20:42:42.533Z,21.40
2023-05-22T20:45:14.200Z,21.20
2023-05-22T20:47:43.354Z,21.25
2023-05-22T20:50:12.043Z,21.07
2023-05-22T20:52:40.429Z,21.18
2023-05-22T20:55:09.355Z,21.16
2023-05-22T20:57:39.206Z,21.08
2023-05-22T21:00:11.062Z,20.86
2023-05-22T21:02:39.803Z,20.69
2023-05-22T21:05:08.717Z,20.87
2023-05-22T21:07:37.321Z,20.79
2023-05-22T21:10:08.065Z,20.82
2023-05-22T21:12:39.354Z,20.72
2023-05-22T21:15:11.619Z,20.94
2023-05-22T21:17:40.213Z,21.08
2023-05-22T21:20:09.037Z,21.04
2023-05-22T21:22:37.327Z,21.06
2023-05-22T21:25:06.176Z,21.14
2023-05-22T21:27:34.491Z,21.18
2023-05-22T21:30:03.986Z,21.20
2023-05-22T21:32:32.330Z,21.15
2023-05-22T21:35:00.416Z,21.05
2023-05-22T21:37:28.728Z,21.01
2023-05-22T21:39:56.780Z,21.02
2023-05-22T21:42:26.183Z,21.11
2023-05-22T21:44:54.347Z,21.12
2023-05-22T21:47:24.117Z,21.03
2023-05-22T21:49:52.232Z,21.10
2023-05-22T21:52:20.675Z,21.01
2023-05-22T21:54:48.714Z,21.02
2023-05-22T21:57:17.043Z,20.99
2023-05-22T21:59:47.097Z,20.88
2023-05-22T22:02:15.536Z,20.89
2023-05-22T22:04:45.052Z,20.84
2023-05-22T22:07:14.029Z,20.71
2023-05-22T22:09:42.172Z,20.70
2023-05-22T22:12:10.525Z,20.63
2023-05-22T22:14:38.521Z,20.54
2023-05-22T22:17:07.811Z,20.50
2023-05-22T22:19:36.130Z,20.52
2023-05-22T22:22:06.596Z,20.44
2023-05-22T22:24:34.980Z,20.40
2023-05-22T22:27:03.513Z,20.41
2023-05-22T22:29:31.593Z,20.41
2023-05-22T22:32:00.703Z,20.42
2023-05-22T22:34:29.029Z,20.34
2023-05-22T22:36:57.761Z,20.18
2023-05-22T22:39:27.393Z,20.12
2023-05-22T22:41:55.779Z,20.25
2023-05-22T22:44:23.851Z,20.02
2023-05-22T22:46:52.092Z,20.00
2023-05-22T22:49:21.647Z,20.04
2023-05-22T22:51:50.949Z,19.99
2023-05-22T22:54:18.963Z,19.95
2023-05-22T22:56:49.707Z,19.97
2023-05-22T22:59:17.818Z,20.03
2023-05-22T23:01:46.176Z,20.12
2023-05-22T23:04:14.470Z,20.17
2023-05-22T23:06:42.901Z,20.27
2023-05-22T23:09:11.076Z,20.28
2023-05-22T23:11:39.876Z,20.21
2023-05-22T23:14:10.021Z,20.03
2023-05-22T23:16:40.762Z,20.02
2023-05-22T23:19:11.849Z,20.05
2023-05-22T23:21:40.417Z,20.08
2023-05-22T23:24:09.957Z,20.28
2023-05-22T23:26:38.299Z,20.05
2023-05-22T23:29:06.448Z,20.07
2023-05-22T23:31:36.601Z,20.20
2023-05-22T23:34:04.761Z,20.25
2023-05-22T23:36:33.505Z,19.98
2023-05-22T23:39:01.600Z,20.10
2023-05-22T23:41:29.873Z,20.04
2023-05-22T23:43:57.969Z,19.98
2023-05-22T23:46:26.274Z,20.03
2023-05-22T23:48:55.721Z,20.02
2023-05-22T23:51:24.060Z,19.94
2023-05-22T23:53:52.119Z,19.94
2023-05-22T23:56:21.461Z,19.92
2023-05-22T23:58:49.715Z,19.93
